sensor_id;sensor_type;location;lat;lon;timestamp;P1;durP1;ratioP1;P2;durP2;ratioP2
76667;SDS011;65585;51.166;16.922;2024-02-21T00:00:56;13.77;;;3.63;;
76667;SDS011;65585;51.166;16.922;2024-02-21T00:03:42;13.65;;;3.92;;
76667;SDS011;65585;51.166;16.922;2024-02-21T00:06:08;14.52;;;3.45;;
76667;SDS011;65585;51.166;16.922;2024-02-21T00:08:34;13.65;;;3.83;;
76667;SDS011;65585;51.166;16.922;2024-02-21T00:11:00;14.07;;;3.53;;
76667;SDS011;65585;51.166;16.922;2024-02-21T00:13:26;13.07;;;3.55;;
76667;SDS011;65585;51.166;16.922;2024-02-21T00:15:52;11.00;;;4.20;;
76667;SDS011;65585;51.166;16.922;2024-02-21T00:18:18;6.57;;;3.95;;
76667;SDS011;65585;51.166;16.922;2024-02-21T00:20:44;10.63;;;3.42;;
76667;SDS011;65585;51.166;16.922;2024-02-21T00:23:10;14.75;;;4.32;;
76667;SDS011;65585;51.166;16.922;2024-02-21T00:25:36;10.15;;;3.72;;
76667;SDS011;65585;51.166;16.922;2024-02-21T00:28:02;14.07;;;3.88;;
76667;SDS011;65585;51.166;16.922;2024-02-21T00:30:28;13.15;;;4.35;;
76667;SDS011;65585;51.166;16.922;2024-02-21T00:32:54;14.50;;;4.22;;
76667;SDS011;65585;51.166;16.922;2024-02-21T00:35:20;9.70;;;3.83;;
76667;SDS011;65585;51.166;16.922;2024-02-21T00:37:46;8.20;;;3.42;;
76667;SDS011;65585;51.166;16.922;2024-02-21T00:40:12;15.85;;;4.20;;
76667;SDS011;65585;51.166;16.922;2024-02-21T00:42:38;12.68;;;3.85;;
76667;SDS011;65585;51.166;16.922;2024-02-21T00:45:04;12.32;;;3.72;;
76667;SDS011;65585;51.166;16.922;2024-02-21T00:47:30;8.50;;;3.55;;
76667;SDS011;65585;51.166;16.922;2024-02-21T00:49:56;15.85;;;4.65;;
76667;SDS011;65585;51.166;16.922;2024-02-21T00:52:22;10.82;;;3.97;;
76667;SDS011;65585;51.166;16.922;2024-02-21T00:54:48;9.85;;;4.15;;
76667;SDS011;65585;51.166;16.922;2024-02-21T00:57:14;15.23;;;5.70;;
76667;SDS011;65585;51.166;16.922;2024-02-21T00:59:40;11.27;;;4.50;;
76667;SDS011;65585;51.166;16.922;2024-02-21T01:02:07;13.88;;;4.95;;
76667;SDS011;65585;51.166;16.922;2024-02-21T01:04:34;13.68;;;4.90;;
76667;SDS011;65585;51.166;16.922;2024-02-21T01:07:00;13.30;;;5.18;;
76667;SDS011;65585;51.166;16.922;2024-02-21T01:09:26;9.63;;;4.75;;
76667;SDS011;65585;51.166;16.922;2024-02-21T01:11:52;22.20;;;5.40;;
76667;SDS011;65585;51.166;16.922;2024-02-21T01:14:18;13.95;;;5.22;;
76667;SDS011;65585;51.166;16.922;2024-02-21T01:16:44;13.48;;;6.10;;
76667;SDS011;65585;51.166;16.922;2024-02-21T01:19:10;14.40;;;5.57;;
76667;SDS011;65585;51.166;16.922;2024-02-21T01:21:36;18.20;;;5.88;;
76667;SDS011;65585;51.166;16.922;2024-02-21T01:24:02;13.05;;;5.28;;
76667;SDS011;65585;51.166;16.922;2024-02-21T01:26:28;13.43;;;5.60;;
76667;SDS011;65585;51.166;16.922;2024-02-21T01:28:53;12.35;;;6.00;;
76667;SDS011;65585;51.166;16.922;2024-02-21T01:31:20;15.32;;;6.20;;
76667;SDS011;65585;51.166;16.922;2024-02-21T01:33:45;17.58;;;5.60;;
76667;SDS011;65585;51.166;16.922;2024-02-21T01:36:12;11.25;;;4.68;;
76667;SDS011;65585;51.166;16.922;2024-02-21T01:38:37;18.90;;;5.35;;
76667;SDS011;65585;51.166;16.922;2024-02-21T01:41:03;16.27;;;5.72;;
76667;SDS011;65585;51.166;16.922;2024-02-21T01:43:29;12.63;;;5.45;;
76667;SDS011;65585;51.166;16.922;2024-02-21T01:45:56;14.68;;;5.82;;
76667;SDS011;65585;51.166;16.922;2024-02-21T01:48:22;12.40;;;4.50;;
76667;SDS011;65585;51.166;16.922;2024-02-21T01:50:49;15.85;;;5.30;;
76667;SDS011;65585;51.166;16.922;2024-02-21T01:53:17;14.90;;;4.80;;
76667;SDS011;65585;51.166;16.922;2024-02-21T01:55:46;17.58;;;5.45;;
76667;SDS011;65585;51.166;16.922;2024-02-21T01:58:15;11.77;;;5.72;;
76667;SDS011;65585;51.166;16.922;2024-02-21T02:00:42;18.92;;;6.20;;
76667;SDS011;65585;51.166;16.922;2024-02-21T02:03:12;13.95;;;5.03;;
76667;SDS011;65585;51.166;16.922;2024-02-21T02:05:45;15.63;;;5.10;;
76667;SDS011;65585;51.166;16.922;2024-02-21T02:08:15;12.13;;;5.00;;
76667;SDS011;65585;51.166;16.922;2024-02-21T02:10:42;17.70;;;4.80;;
76667;SDS011;65585;51.166;16.922;2024-02-21T02:13:08;12.75;;;4.55;;
76667;SDS011;65585;51.166;16.922;2024-02-21T02:15:45;11.18;;;4.60;;
76667;SDS011;65585;51.166;16.922;2024-02-21T02:18:12;11.43;;;5.13;;
76667;SDS011;65585;51.166;16.922;2024-02-21T02:20:39;20.98;;;6.35;;
76667;SDS011;65585;51.166;16.922;2024-02-21T02:25:40;46.63;;;22.00;;
76667;SDS011;65585;51.166;16.922;2024-02-21T02:28:06;45.70;;;29.15;;
76667;SDS011;65585;51.166;16.922;2024-02-21T02:30:34;58.00;;;31.83;;
76667;SDS011;65585;51.166;16.922;2024-02-21T02:33:04;59.95;;;32.75;;
76667;SDS011;65585;51.166;16.922;2024-02-21T02:35:31;58.65;;;35.65;;
76667;SDS011;65585;51.166;16.922;2024-02-21T02:37:57;59.60;;;36.50;;
76667;SDS011;65585;51.166;16.922;2024-02-21T02:40:23;53.75;;;29.23;;
76667;SDS011;65585;51.166;16.922;2024-02-21T02:42:53;37.67;;;21.23;;
76667;SDS011;65585;51.166;16.922;2024-02-21T02:45:23;25.02;;;13.00;;
76667;SDS011;65585;51.166;16.922;2024-02-21T02:47:51;21.35;;;10.50;;
76667;SDS011;65585;51.166;16.922;2024-02-21T02:50:22;18.15;;;7.82;;
76667;SDS011;65585;51.166;16.922;2024-02-21T02:52:49;20.30;;;6.30;;
76667;SDS011;65585;51.166;16.922;2024-02-21T02:55:15;16.73;;;6.47;;
76667;SDS011;65585;51.166;16.922;2024-02-21T02:57:41;14.88;;;7.07;;
76667;SDS011;65585;51.166;16.922;2024-02-21T03:00:08;15.15;;;8.20;;
76667;SDS011;65585;51.166;16.922;2024-02-21T03:02:37;23.08;;;10.07;;
76667;SDS011;65585;51.166;16.922;2024-02-21T03:05:11;27.52;;;14.02;;
76667;SDS011;65585;51.166;16.922;2024-02-21T03:07:41;24.92;;;14.55;;
76667;SDS011;65585;51.166;16.922;2024-02-21T03:10:08;28.95;;;15.93;;
76667;SDS011;65585;51.166;16.922;2024-02-21T03:12:34;32.25;;;16.55;;
76667;SDS011;65585;51.166;16.922;2024-02-21T03:15:01;29.02;;;15.65;;
76667;SDS011;65585;51.166;16.922;2024-02-21T03:17:27;27.05;;;14.00;;
76667;SDS011;65585;51.166;16.922;2024-02-21T03:19:53;26.85;;;13.30;;
76667;SDS011;65585;51.166;16.922;2024-02-21T03:22:21;18.98;;;11.25;;
76667;SDS011;65585;51.166;16.922;2024-02-21T03:24:53;24.42;;;10.05;;
76667;SDS011;65585;51.166;16.922;2024-02-21T03:27:18;21.38;;;9.45;;
76667;SDS011;65585;51.166;16.922;2024-02-21T03:29:45;16.25;;;7.53;;
76667;SDS011;65585;51.166;16.922;2024-02-21T03:32:10;19.70;;;8.18;;
76667;SDS011;65585;51.166;16.922;2024-02-21T03:34:36;20.55;;;9.85;;
76667;SDS011;65585;51.166;16.922;2024-02-21T03:37:02;19.92;;;11.30;;
76667;SDS011;65585;51.166;16.922;2024-02-21T03:39:31;37.20;;;22.13;;
76667;SDS011;65585;51.166;16.922;2024-02-21T03:41:58;41.00;;;24.92;;
76667;SDS011;65585;51.166;16.922;2024-02-21T03:44:26;25.35;;;16.25;;
76667;SDS011;65585;51.166;16.922;2024-02-21T03:46:52;23.27;;;12.82;;
76667;SDS011;65585;51.166;16.922;2024-02-21T03:49:18;21.08;;;8.95;;
76667;SDS011;65585;51.166;16.922;2024-02-21T03:51:44;18.17;;;7.65;;
76667;SDS011;65585;51.166;16.922;2024-02-21T03:54:10;17.10;;;6.88;;
76667;SDS011;65585;51.166;16.922;2024-02-21T03:56:39;17.23;;;6.40;;
76667;SDS011;65585;51.166;16.922;2024-02-21T03:59:06;16.73;;;5.38;;
76667;SDS011;65585;51.166;16.922;2024-02-21T04:01:33;12.52;;;5.80;;
76667;SDS011;65585;51.166;16.922;2024-02-21T04:04:00;19.42;;;5.85;;
76667;SDS011;65585;51.166;16.922;2024-02-21T04:06:26;13.55;;;5.47;;
76667;SDS011;65585;51.166;16.922;2024-02-21T04:08:52;14.15;;;5.95;;
76667;SDS011;65585;51.166;16.922;2024-02-21T04:11:18;11.98;;;5.55;;
76667;SDS011;65585;51.166;16.922;2024-02-21T04:13:45;15.18;;;6.13;;
76667;SDS011;65585;51.166;16.922;2024-02-21T04:16:14;18.88;;;6.30;;
76667;SDS011;65585;51.166;16.922;2024-02-21T04:18:41;11.40;;;5.22;;
76667;SDS011;65585;51.166;16.922;2024-02-21T04:21:07;10.70;;;5.32;;
76667;SDS011;65585;51.166;16.922;2024-02-21T04:23:34;12.93;;;5.90;;
76667;SDS011;65585;51.166;16.922;2024-02-21T04:25:59;12.60;;;6.15;;
76667;SDS011;65585;51.166;16.922;2024-02-21T04:28:26;12.60;;;5.88;;
76667;SDS011;65585;51.166;16.922;2024-02-21T04:30:51;11.23;;;5.63;;
76667;SDS011;65585;51.166;16.922;2024-02-21T04:33:18;15.70;;;5.85;;
76667;SDS011;65585;51.166;16.922;2024-02-21T04:35:44;18.65;;;6.32;;
76667;SDS011;65585;51.166;16.922;2024-02-21T04:38:10;17.35;;;5.70;;
76667;SDS011;65585;51.166;16.922;2024-02-21T04:40:36;16.73;;;6.65;;
76667;SDS011;65585;51.166;16.922;2024-02-21T04:43:02;12.95;;;5.82;;
76667;SDS011;65585;51.166;16.922;2024-02-21T04:45:28;13.50;;;5.53;;
76667;SDS011;65585;51.166;16.922;2024-02-21T04:47:54;8.63;;;4.75;;
76667;SDS011;65585;51.166;16.922;2024-02-21T04:50:20;11.77;;;6.15;;
76667;SDS011;65585;51.166;16.922;2024-02-21T04:52:46;11.60;;;5.20;;
76667;SDS011;65585;51.166;16.922;2024-02-21T04:55:12;12.77;;;5.35;;
76667;SDS011;65585;51.166;16.922;2024-02-21T04:57:38;12.95;;;5.72;;
76667;SDS011;65585;51.166;16.922;2024-02-21T05:00:05;12.50;;;5.10;;
76667;SDS011;65585;51.166;16.922;2024-02-21T05:02:33;11.35;;;4.97;;
76667;SDS011;65585;51.166;16.922;2024-02-21T05:04:58;15.73;;;5.95;;
76667;SDS011;65585;51.166;16.922;2024-02-21T05:07:24;12.27;;;5.63;;
76667;SDS011;65585;51.166;16.922;2024-02-21T05:09:51;18.80;;;6.32;;
76667;SDS011;65585;51.166;16.922;2024-02-21T05:12:17;14.35;;;6.35;;
76667;SDS011;65585;51.166;16.922;2024-02-21T05:14:42;15.60;;;6.97;;
76667;SDS011;65585;51.166;16.922;2024-02-21T05:17:08;17.88;;;7.70;;
76667;SDS011;65585;51.166;16.922;2024-02-21T05:19:34;16.20;;;8.68;;
76667;SDS011;65585;51.166;16.922;2024-02-21T05:22:00;22.27;;;9.13;;
76667;SDS011;65585;51.166;16.922;2024-02-21T05:24:26;21.23;;;10.07;;
76667;SDS011;65585;51.166;16.922;2024-02-21T05:26:53;19.58;;;9.00;;
76667;SDS011;65585;51.166;16.922;2024-02-21T05:29:19;16.52;;;7.82;;
76667;SDS011;65585;51.166;16.922;2024-02-21T05:34:19;14.20;;;7.88;;
76667;SDS011;65585;51.166;16.922;2024-02-21T05:36:48;15.82;;;7.47;;
76667;SDS011;65585;51.166;16.922;2024-02-21T05:39:15;12.48;;;7.05;;
76667;SDS011;65585;51.166;16.922;2024-02-21T05:41:42;14.23;;;7.63;;
76667;SDS011;65585;51.166;16.922;2024-02-21T05:44:08;15.77;;;7.55;;
76667;SDS011;65585;51.166;16.922;2024-02-21T05:46:34;12.93;;;7.03;;
76667;SDS011;65585;51.166;16.922;2024-02-21T05:49:00;11.00;;;6.45;;
76667;SDS011;65585;51.166;16.922;2024-02-21T05:51:26;17.02;;;7.05;;
76667;SDS011;65585;51.166;16.922;2024-02-21T05:53:52;11.73;;;6.70;;
76667;SDS011;65585;51.166;16.922;2024-02-21T05:56:18;11.60;;;7.07;;
76667;SDS011;65585;51.166;16.922;2024-02-21T05:58:44;16.30;;;6.70;;
76667;SDS011;65585;51.166;16.922;2024-02-21T06:01:11;11.93;;;6.55;;
76667;SDS011;65585;51.166;16.922;2024-02-21T06:03:37;9.95;;;5.60;;
76667;SDS011;65585;51.166;16.922;2024-02-21T06:06:03;12.23;;;6.03;;
76667;SDS011;65585;51.166;16.922;2024-02-21T06:08:30;11.98;;;6.38;;
76667;SDS011;65585;51.166;16.922;2024-02-21T06:10:56;12.95;;;7.28;;
76667;SDS011;65585;51.166;16.922;2024-02-21T06:13:25;13.48;;;6.47;;
76667;SDS011;65585;51.166;16.922;2024-02-21T06:15:52;9.82;;;6.47;;
76667;SDS011;65585;51.166;16.922;2024-02-21T06:18:18;9.55;;;4.80;;
76667;SDS011;65585;51.166;16.922;2024-02-21T06:20:45;9.00;;;5.00;;
76667;SDS011;65585;51.166;16.922;2024-02-21T06:23:15;12.90;;;5.05;;
76667;SDS011;65585;51.166;16.922;2024-02-21T06:25:45;12.23;;;4.75;;
76667;SDS011;65585;51.166;16.922;2024-02-21T06:28:13;10.95;;;5.45;;
76667;SDS011;65585;51.166;16.922;2024-02-21T06:30:39;12.95;;;6.22;;
76667;SDS011;65585;51.166;16.922;2024-02-21T06:33:05;7.88;;;5.15;;
76667;SDS011;65585;51.166;16.922;2024-02-21T06:35:33;9.63;;;5.10;;
76667;SDS011;65585;51.166;16.922;2024-02-21T06:37:59;11.40;;;5.97;;
76667;SDS011;65585;51.166;16.922;2024-02-21T06:40:26;10.15;;;5.45;;
76667;SDS011;65585;51.166;16.922;2024-02-21T06:42:51;12.48;;;6.15;;
76667;SDS011;65585;51.166;16.922;2024-02-21T06:45:18;14.48;;;5.80;;
76667;SDS011;65585;51.166;16.922;2024-02-21T06:47:43;11.75;;;6.10;;
76667;SDS011;65585;51.166;16.922;2024-02-21T06:50:09;17.98;;;6.32;;
76667;SDS011;65585;51.166;16.922;2024-02-21T06:52:36;15.23;;;6.45;;
76667;SDS011;65585;51.166;16.922;2024-02-21T06:55:02;12.23;;;6.18;;
76667;SDS011;65585;51.166;16.922;2024-02-21T06:57:28;10.95;;;6.10;;
76667;SDS011;65585;51.166;16.922;2024-02-21T06:59:55;10.63;;;6.78;;
76667;SDS011;65585;51.166;16.922;2024-02-21T07:02:21;15.63;;;6.93;;
76667;SDS011;65585;51.166;16.922;2024-02-21T07:04:47;15.73;;;6.50;;
76667;SDS011;65585;51.166;16.922;2024-02-21T07:07:13;13.10;;;6.45;;
76667;SDS011;65585;51.166;16.922;2024-02-21T07:09:39;14.05;;;6.28;;
76667;SDS011;65585;51.166;16.922;2024-02-21T07:12:05;11.80;;;5.80;;
76667;SDS011;65585;51.166;16.922;2024-02-21T07:14:32;16.45;;;5.82;;
76667;SDS011;65585;51.166;16.922;2024-02-21T07:16:58;13.52;;;5.72;;
76667;SDS011;65585;51.166;16.922;2024-02-21T07:19:24;12.40;;;6.40;;
76667;SDS011;65585;51.166;16.922;2024-02-21T07:21:52;9.30;;;5.53;;
76667;SDS011;65585;51.166;16.922;2024-02-21T07:24:18;12.80;;;5.60;;
76667;SDS011;65585;51.166;16.922;2024-02-21T07:26:44;14.65;;;6.53;;
76667;SDS011;65585;51.166;16.922;2024-02-21T07:29:10;15.10;;;6.22;;
76667;SDS011;65585;51.166;16.922;2024-02-21T07:31:42;14.90;;;6.63;;
76667;SDS011;65585;51.166;16.922;2024-02-21T07:34:09;16.38;;;7.07;;
76667;SDS011;65585;51.166;16.922;2024-02-21T07:36:35;14.73;;;6.47;;
76667;SDS011;65585;51.166;16.922;2024-02-21T07:39:03;18.17;;;6.10;;
76667;SDS011;65585;51.166;16.922;2024-02-21T07:41:30;12.80;;;6.35;;
76667;SDS011;65585;51.166;16.922;2024-02-21T07:43:56;12.80;;;5.45;;
76667;SDS011;65585;51.166;16.922;2024-02-21T07:46:22;14.75;;;6.22;;
76667;SDS011;65585;51.166;16.922;2024-02-21T07:48:49;13.95;;;6.28;;
76667;SDS011;65585;51.166;16.922;2024-02-21T07:51:18;11.73;;;6.57;;
76667;SDS011;65585;51.166;16.922;2024-02-21T07:53:45;11.70;;;5.90;;
76667;SDS011;65585;51.166;16.922;2024-02-21T07:56:11;14.48;;;7.57;;
76667;SDS011;65585;51.166;16.922;2024-02-21T07:58:38;18.35;;;8.02;;
76667;SDS011;65585;51.166;16.922;2024-02-21T08:01:03;14.70;;;7.60;;
76667;SDS011;65585;51.166;16.922;2024-02-21T08:03:29;18.77;;;7.60;;
76667;SDS011;65585;51.166;16.922;2024-02-21T08:05:55;23.83;;;7.63;;
76667;SDS011;65585;51.166;16.922;2024-02-21T08:08:21;12.02;;;7.15;;
76667;SDS011;65585;51.166;16.922;2024-02-21T08:10:48;13.15;;;7.80;;
76667;SDS011;65585;51.166;16.922;2024-02-21T08:13:14;19.05;;;7.82;;
76667;SDS011;65585;51.166;16.922;2024-02-21T08:15:40;16.02;;;6.72;;
76667;SDS011;65585;51.166;16.922;2024-02-21T08:18:07;16.50;;;7.20;;
76667;SDS011;65585;51.166;16.922;2024-02-21T08:20:33;13.30;;;7.03;;
76667;SDS011;65585;51.166;16.922;2024-02-21T08:22:59;16.25;;;7.55;;
76667;SDS011;65585;51.166;16.922;2024-02-21T08:25:25;17.67;;;7.40;;
76667;SDS011;65585;51.166;16.922;2024-02-21T08:27:53;14.50;;;7.10;;
76667;SDS011;65585;51.166;16.922;2024-02-21T08:30:22;14.60;;;7.78;;
76667;SDS011;65585;51.166;16.922;2024-02-21T08:32:48;15.85;;;7.75;;
76667;SDS011;65585;51.166;16.922;2024-02-21T08:35:15;20.45;;;8.18;;
76667;SDS011;65585;51.166;16.922;2024-02-21T08:37:44;13.93;;;7.72;;
76667;SDS011;65585;51.166;16.922;2024-02-21T08:40:13;13.15;;;7.30;;
76667;SDS011;65585;51.166;16.922;2024-02-21T08:42:43;12.70;;;7.32;;
76667;SDS011;65585;51.166;16.922;2024-02-21T08:45:09;16.92;;;6.85;;
76667;SDS011;65585;51.166;16.922;2024-02-21T08:47:36;16.80;;;6.43;;
76667;SDS011;65585;51.166;16.922;2024-02-21T08:50:04;15.35;;;6.85;;
76667;SDS011;65585;51.166;16.922;2024-02-21T08:52:31;15.95;;;7.53;;
76667;SDS011;65585;51.166;16.922;2024-02-21T08:54:58;16.10;;;6.93;;
76667;SDS011;65585;51.166;16.922;2024-02-21T08:57:24;16.05;;;7.75;;
76667;SDS011;65585;51.166;16.922;2024-02-21T08:59:50;14.35;;;6.70;;
76667;SDS011;65585;51.166;16.922;2024-02-21T09:02:16;12.75;;;5.95;;
76667;SDS011;65585;51.166;16.922;2024-02-21T09:04:42;13.88;;;5.90;;
76667;SDS011;65585;51.166;16.922;2024-02-21T09:07:12;13.00;;;6.00;;
76667;SDS011;65585;51.166;16.922;2024-02-21T09:09:38;15.50;;;6.47;;
76667;SDS011;65585;51.166;16.922;2024-02-21T09:12:06;10.63;;;5.30;;
76667;SDS011;65585;51.166;16.922;2024-02-21T09:14:32;19.70;;;5.95;;
76667;SDS011;65585;51.166;16.922;2024-02-21T09:16:59;15.38;;;6.05;;
76667;SDS011;65585;51.166;16.922;2024-02-21T09:19:24;15.25;;;5.88;;
76667;SDS011;65585;51.166;16.922;2024-02-21T09:21:51;14.38;;;6.38;;
76667;SDS011;65585;51.166;16.922;2024-02-21T09:24:17;14.32;;;5.97;;
76667;SDS011;65585;51.166;16.922;2024-02-21T09:26:43;15.02;;;5.95;;
76667;SDS011;65585;51.166;16.922;2024-02-21T09:29:09;12.25;;;6.40;;
76667;SDS011;65585;51.166;16.922;2024-02-21T09:31:35;11.48;;;5.90;;
76667;SDS011;65585;51.166;16.922;2024-02-21T09:34:04;14.23;;;6.90;;
76667;SDS011;65585;51.166;16.922;2024-02-21T09:36:30;17.25;;;6.68;;
76667;SDS011;65585;51.166;16.922;2024-02-21T09:38:56;15.02;;;6.82;;
76667;SDS011;65585;51.166;16.922;2024-02-21T09:41:25;11.48;;;6.07;;
76667;SDS011;65585;51.166;16.922;2024-02-21T09:43:51;17.15;;;6.93;;
76667;SDS011;65585;51.166;16.922;2024-02-21T09:49:05;13.32;;;5.32;;
76667;SDS011;65585;51.166;16.922;2024-02-21T09:51:37;15.52;;;6.60;;
76667;SDS011;65585;51.166;16.922;2024-02-21T09:54:04;11.35;;;6.40;;
76667;SDS011;65585;51.166;16.922;2024-02-21T09:56:30;18.42;;;7.00;;
76667;SDS011;65585;51.166;16.922;2024-02-21T09:58:56;10.65;;;5.38;;
76667;SDS011;65585;51.166;16.922;2024-02-21T10:01:23;11.52;;;6.35;;
76667;SDS011;65585;51.166;16.922;2024-02-21T10:03:49;18.50;;;6.22;;
76667;SDS011;65585;51.166;16.922;2024-02-21T10:06:17;17.15;;;6.80;;
76667;SDS011;65585;51.166;16.922;2024-02-21T10:08:43;12.82;;;6.28;;
76667;SDS011;65585;51.166;16.922;2024-02-21T10:11:10;13.25;;;5.80;;
76667;SDS011;65585;51.166;16.922;2024-02-21T10:13:36;13.98;;;6.45;;
76667;SDS011;65585;51.166;16.922;2024-02-21T10:16:04;14.02;;;6.80;;
76667;SDS011;65585;51.166;16.922;2024-02-21T10:18:31;13.48;;;6.20;;
76667;SDS011;65585;51.166;16.922;2024-02-21T10:21:04;16.40;;;6.18;;
76667;SDS011;65585;51.166;16.922;2024-02-21T10:23:50;15.25;;;6.47;;
76667;SDS011;65585;51.166;16.922;2024-02-21T10:26:18;11.70;;;5.65;;
76667;SDS011;65585;51.166;16.922;2024-02-21T10:28:44;12.38;;;6.40;;
76667;SDS011;65585;51.166;16.922;2024-02-21T10:31:25;15.93;;;6.88;;
76667;SDS011;65585;51.166;16.922;2024-02-21T10:33:55;11.90;;;6.68;;
76667;SDS011;65585;51.166;16.922;2024-02-21T10:36:22;14.13;;;7.38;;
76667;SDS011;65585;51.166;16.922;2024-02-21T10:38:53;12.73;;;6.53;;
76667;SDS011;65585;51.166;16.922;2024-02-21T10:41:20;19.65;;;7.95;;
76667;SDS011;65585;51.166;16.922;2024-02-21T10:43:53;13.95;;;7.22;;
76667;SDS011;65585;51.166;16.922;2024-02-21T10:46:21;15.98;;;7.03;;
76667;SDS011;65585;51.166;16.922;2024-02-21T10:48:48;14.85;;;6.50;;
76667;SDS011;65585;51.166;16.922;2024-02-21T10:51:26;15.18;;;6.25;;
76667;SDS011;65585;51.166;16.922;2024-02-21T10:54:12;14.20;;;6.55;;
76667;SDS011;65585;51.166;16.922;2024-02-21T10:56:44;13.25;;;6.45;;
76667;SDS011;65585;51.166;16.922;2024-02-21T10:59:10;14.77;;;5.93;;
76667;SDS011;65585;51.166;16.922;2024-02-21T11:01:38;12.85;;;6.63;;
76667;SDS011;65585;51.166;16.922;2024-02-21T11:04:05;14.25;;;6.22;;
76667;SDS011;65585;51.166;16.922;2024-02-21T11:06:33;9.45;;;5.90;;
76667;SDS011;65585;51.166;16.922;2024-02-21T11:09:06;12.65;;;6.65;;
76667;SDS011;65585;51.166;16.922;2024-02-21T11:11:40;12.05;;;6.18;;
76667;SDS011;65585;51.166;16.922;2024-02-21T11:14:09;13.38;;;6.10;;
76667;SDS011;65585;51.166;16.922;2024-02-21T11:16:45;18.60;;;6.50;;
76667;SDS011;65585;51.166;16.922;2024-02-21T11:21:51;11.52;;;5.90;;
76667;SDS011;65585;51.166;16.922;2024-02-21T11:27:09;12.68;;;5.90;;
76667;SDS011;65585;51.166;16.922;2024-02-21T11:29:42;13.02;;;6.30;;
76667;SDS011;65585;51.166;16.922;2024-02-21T11:32:15;12.98;;;6.78;;
76667;SDS011;65585;51.166;16.922;2024-02-21T11:34:52;11.85;;;5.72;;
76667;SDS011;65585;51.166;16.922;2024-02-21T11:37:24;9.57;;;5.68;;
76667;SDS011;65585;51.166;16.922;2024-02-21T11:39:51;9.48;;;6.22;;
76667;SDS011;65585;51.166;16.922;2024-02-21T11:42:18;10.68;;;5.78;;
76667;SDS011;65585;51.166;16.922;2024-02-21T11:44:45;10.40;;;5.82;;
76667;SDS011;65585;51.166;16.922;2024-02-21T11:47:13;14.73;;;6.15;;
76667;SDS011;65585;51.166;16.922;2024-02-21T11:49:46;11.30;;;6.07;;
76667;SDS011;65585;51.166;16.922;2024-02-21T11:52:23;11.60;;;5.93;;
76667;SDS011;65585;51.166;16.922;2024-02-21T11:54:52;11.57;;;5.93;;
76667;SDS011;65585;51.166;16.922;2024-02-21T11:57:20;9.98;;;5.03;;
76667;SDS011;65585;51.166;16.922;2024-02-21T11:59:46;13.25;;;5.43;;
76667;SDS011;65585;51.166;16.922;2024-02-21T12:02:13;12.45;;;5.03;;
76667;SDS011;65585;51.166;16.922;2024-02-21T12:04:39;7.78;;;5.10;;
76667;SDS011;65585;51.166;16.922;2024-02-21T12:07:06;13.82;;;6.07;;
76667;SDS011;65585;51.166;16.922;2024-02-21T12:09:33;11.75;;;5.53;;
76667;SDS011;65585;51.166;16.922;2024-02-21T12:12:03;10.30;;;5.50;;
76667;SDS011;65585;51.166;16.922;2024-02-21T12:14:30;8.27;;;4.65;;
76667;SDS011;65585;51.166;16.922;2024-02-21T12:17:00;10.63;;;5.85;;
76667;SDS011;65585;51.166;16.922;2024-02-21T12:19:30;11.20;;;4.63;;
76667;SDS011;65585;51.166;16.922;2024-02-21T12:21:58;8.98;;;5.22;;
76667;SDS011;65585;51.166;16.922;2024-02-21T12:24:25;14.38;;;5.32;;
76667;SDS011;65585;51.166;16.922;2024-02-21T12:26:52;13.20;;;6.45;;
76667;SDS011;65585;51.166;16.922;2024-02-21T12:29:19;9.85;;;5.13;;
76667;SDS011;65585;51.166;16.922;2024-02-21T12:31:45;12.05;;;5.10;;
76667;SDS011;65585;51.166;16.922;2024-02-21T12:34:11;10.35;;;5.43;;
76667;SDS011;65585;51.166;16.922;2024-02-21T12:36:41;10.95;;;5.32;;
76667;SDS011;65585;51.166;16.922;2024-02-21T12:39:08;8.77;;;4.90;;
76667;SDS011;65585;51.166;16.922;2024-02-21T12:41:35;10.88;;;4.63;;
76667;SDS011;65585;51.166;16.922;2024-02-21T12:44:12;7.50;;;4.60;;
76667;SDS011;65585;51.166;16.922;2024-02-21T12:46:38;7.90;;;4.65;;
76667;SDS011;65585;51.166;16.922;2024-02-21T12:49:05;8.63;;;4.70;;
76667;SDS011;65585;51.166;16.922;2024-02-21T12:51:33;8.38;;;4.78;;
76667;SDS011;65585;51.166;16.922;2024-02-21T12:53:59;9.85;;;4.53;;
76667;SDS011;65585;51.166;16.922;2024-02-21T12:56:26;10.18;;;4.65;;
76667;SDS011;65585;51.166;16.922;2024-02-21T12:58:56;10.98;;;4.72;;
76667;SDS011;65585;51.166;16.922;2024-02-21T13:01:23;6.85;;;4.18;;
76667;SDS011;65585;51.166;16.922;2024-02-21T13:03:49;8.90;;;4.85;;
76667;SDS011;65585;51.166;16.922;2024-02-21T13:06:15;10.65;;;4.65;;
76667;SDS011;65585;51.166;16.922;2024-02-21T13:08:41;6.55;;;4.75;;
76667;SDS011;65585;51.166;16.922;2024-02-21T13:11:07;15.93;;;5.30;;
76667;SDS011;65585;51.166;16.922;2024-02-21T13:13:33;10.35;;;4.13;;
76667;SDS011;65585;51.166;16.922;2024-02-21T13:15:59;7.78;;;4.50;;
76667;SDS011;65585;51.166;16.922;2024-02-21T13:18:25;10.07;;;5.35;;
76667;SDS011;65585;51.166;16.922;2024-02-21T13:20:51;8.35;;;5.20;;
76667;SDS011;65585;51.166;16.922;2024-02-21T13:23:17;11.05;;;4.63;;
76667;SDS011;65585;51.166;16.922;2024-02-21T13:25:43;7.03;;;4.20;;
76667;SDS011;65585;51.166;16.922;2024-02-21T13:28:12;6.88;;;4.20;;
76667;SDS011;65585;51.166;16.922;2024-02-21T13:30:40;8.20;;;4.25;;
76667;SDS011;65585;51.166;16.922;2024-02-21T13:33:06;9.07;;;4.40;;
76667;SDS011;65585;51.166;16.922;2024-02-21T13:35:33;10.52;;;5.28;;
76667;SDS011;65585;51.166;16.922;2024-02-21T13:38:00;8.35;;;4.30;;
76667;SDS011;65585;51.166;16.922;2024-02-21T13:40:27;8.05;;;4.00;;
76667;SDS011;65585;51.166;16.922;2024-02-21T13:42:52;8.38;;;4.68;;
76667;SDS011;65585;51.166;16.922;2024-02-21T13:45:19;8.05;;;4.13;;
76667;SDS011;65585;51.166;16.922;2024-02-21T13:47:45;9.07;;;4.50;;
76667;SDS011;65585;51.166;16.922;2024-02-21T13:50:12;8.35;;;4.70;;
76667;SDS011;65585;51.166;16.922;2024-02-21T13:52:42;9.98;;;4.82;;
76667;SDS011;65585;51.166;16.922;2024-02-21T13:55:09;9.50;;;4.57;;
76667;SDS011;65585;51.166;16.922;2024-02-21T13:57:35;11.23;;;4.47;;
76667;SDS011;65585;51.166;16.922;2024-02-21T14:00:02;8.23;;;4.47;;
76667;SDS011;65585;51.166;16.922;2024-02-21T14:04:56;8.65;;;4.72;;
76667;SDS011;65585;51.166;16.922;2024-02-21T14:07:22;9.63;;;4.68;;
76667;SDS011;65585;51.166;16.922;2024-02-21T14:09:48;9.68;;;5.35;;
76667;SDS011;65585;51.166;16.922;2024-02-21T14:12:15;8.70;;;5.25;;
76667;SDS011;65585;51.166;16.922;2024-02-21T14:14:43;9.68;;;4.95;;
76667;SDS011;65585;51.166;16.922;2024-02-21T14:17:09;8.02;;;5.35;;
76667;SDS011;65585;51.166;16.922;2024-02-21T14:19:36;11.48;;;5.55;;
76667;SDS011;65585;51.166;16.922;2024-02-21T14:22:01;10.02;;;6.35;;
76667;SDS011;65585;51.166;16.922;2024-02-21T14:24:28;9.95;;;5.88;;
76667;SDS011;65585;51.166;16.922;2024-02-21T14:26:54;11.50;;;6.78;;
76667;SDS011;65585;51.166;16.922;2024-02-21T14:29:20;11.23;;;8.10;;
76667;SDS011;65585;51.166;16.922;2024-02-21T14:31:47;9.73;;;4.90;;
76667;SDS011;65585;51.166;16.922;2024-02-21T14:34:13;10.90;;;5.28;;
76667;SDS011;65585;51.166;16.922;2024-02-21T14:36:38;8.32;;;4.70;;
76667;SDS011;65585;51.166;16.922;2024-02-21T14:39:06;8.93;;;5.03;;